Map

Track Data

SID SEASON NUMBER BASIN SUBBASIN NAME ISO_TIME NATURE LAT LON WMO_WIND WMO_PRES WMO_AGENCY TRACK_TYPE DIST2LAND LANDFALL IFLAG USA_AGENCY USA_ATCF_ID USA_LAT USA_LON USA_RECORD USA_STATUS USA_WIND USA_PRES USA_SSHS USA_R34_NE USA_R34_SE USA_R34_SW USA_R34_NW USA_R50_NE USA_R50_SE USA_R50_SW USA_R50_NW USA_R64_NE USA_R64_SE USA_R64_SW USA_R64_NW USA_POCI USA_ROCI USA_RMW USA_EYE TOKYO_LAT TOKYO_LON TOKYO_GRADE TOKYO_WIND TOKYO_PRES TOKYO_R50_DIR TOKYO_R50_LONG TOKYO_R50_SHORT TOKYO_R30_DIR TOKYO_R30_LONG TOKYO_R30_SHORT TOKYO_LAND CMA_LAT CMA_LON CMA_CAT CMA_WIND CMA_PRES HKO_LAT HKO_LON HKO_CAT HKO_WIND HKO_PRES NEWDELHI_LAT NEWDELHI_LON NEWDELHI_GRADE NEWDELHI_WIND NEWDELHI_PRES NEWDELHI_CI NEWDELHI_DP NEWDELHI_POCI REUNION_LAT REUNION_LON REUNION_TYPE REUNION_WIND REUNION_PRES REUNION_TNUM REUNION_CI REUNION_RMW REUNION_R34_NE REUNION_R34_SE REUNION_R34_SW REUNION_R34_NW REUNION_R50_NE REUNION_R50_SE REUNION_R50_SW REUNION_R50_NW REUNION_R64_NE REUNION_R64_SE REUNION_R64_SW REUNION_R64_NW BOM_LAT BOM_LON BOM_TYPE BOM_WIND BOM_PRES BOM_TNUM BOM_CI BOM_RMW BOM_R34_NE BOM_R34_SE BOM_R34_SW BOM_R34_NW BOM_R50_NE BOM_R50_SE BOM_R50_SW BOM_R50_NW BOM_R64_NE BOM_R64_SE BOM_R64_SW BOM_R64_NW BOM_ROCI BOM_POCI BOM_EYE BOM_POS_METHOD BOM_PRES_METHOD NADI_LAT NADI_LON NADI_CAT NADI_WIND NADI_PRES WELLINGTON_LAT WELLINGTON_LON WELLINGTON_WIND WELLINGTON_PRES DS824_LAT DS824_LON DS824_STAGE DS824_WIND DS824_PRES TD9636_LAT TD9636_LON TD9636_STAGE TD9636_WIND TD9636_PRES TD9635_LAT TD9635_LON TD9635_WIND TD9635_PRES TD9635_ROCI NEUMANN_LAT NEUMANN_LON NEUMANN_CLASS NEUMANN_WIND NEUMANN_PRES MLC_LAT MLC_LON MLC_CLASS MLC_WIND MLC_PRES USA_GUST BOM_GUST BOM_GUST_PER REUNION_GUST REUNION_GUST_PER USA_SEAHGT USA_SEARAD_NE USA_SEARAD_SE USA_SEARAD_SW USA_SEARAD_NW STORM_SPEED STORM_DIR
1961308N20266 1961 116 NA GM INGA 1961-11-04 00:00:00 TS 19.7000 -94.3000 40 hurdat_atl main 143 143 O_____________ hurdat_atl AL111961 19.7000 -94.3000 TS 40 0 2 336
1961308N20266 1961 116 NA GM INGA 1961-11-04 03:00:00 TS 19.8025 -94.3500 main 153 148 P_____________ AL111961 19.8025 -94.3500 TS 45 0 2 333
1961308N20266 1961 116 NA GM INGA 1961-11-04 06:00:00 TS 19.9000 -94.4000 50 hurdat_atl main 158 158 O_____________ hurdat_atl AL111961 19.9000 -94.4000 TS 50 0 2 333
1961308N20266 1961 116 NA GM INGA 1961-11-04 09:00:00 TS 19.9925 -94.4500 main 162 162 P_____________ AL111961 19.9925 -94.4500 TS 55 0 2 333
1961308N20266 1961 116 NA GM INGA 1961-11-04 12:00:00 TS 20.1000 -94.5000 60 hurdat_atl main 172 172 O_____________ hurdat_atl AL111961 20.1000 -94.5000 TS 60 0 2 342
1961308N20266 1961 116 NA GM INGA 1961-11-04 15:00:00 TS 20.2275 -94.5351 main 183 183 P_____________ AL111961 20.2275 -94.5351 TS 60 0 3 343
1961308N20266 1961 116 NA GM INGA 1961-11-04 18:00:00 TS 20.4000 -94.6000 60 hurdat_atl main 196 189 O_____________ hurdat_atl AL111961 20.4000 -94.6000 TS 60 0 4 337
1961308N20266 1961 116 NA GM INGA 1961-11-04 21:00:00 TS 20.6350 -94.7200 main 193 185 P_____________ AL111961 20.6350 -94.7200 TS 60 0 6 331
1961308N20266 1961 116 NA GM INGA 1961-11-05 00:00:00 TS 20.9000 -94.9000 60 997 hurdat_atl main 192 190 O_____________ hurdat_atl AL111961 20.9000 -94.9000 TS 60 997 0 6 323
1961308N20266 1961 116 NA GM INGA 1961-11-05 03:00:00 TS 21.1425 -95.1351 main 190 190 P_____________ AL111961 21.1425 -95.1351 TS 60 997 0 7 317
1961308N20266 1961 116 NA GM INGA 1961-11-05 06:00:00 TS 21.4000 -95.4000 60 hurdat_atl main 190 165 I_____________ hurdat_atl AL111961 21.4000 -95.4000 TS 60 997 0 8 319
1961308N20266 1961 116 NA GM INGA 1961-11-05 09:00:00 TS 21.7151 -95.6798 main 165 148 P_____________ AL111961 21.7151 -95.6798 TS 60 997 0 8 322
1961308N20266 1961 116 NA GM INGA 1961-11-05 12:00:00 TS 22.0000 -95.9000 60 997 hurdat_atl main 151 145 O_____________ hurdat_atl AL111961 22.0000 -95.9000 TS 60 997 0 6 329
1961308N20266 1961 116 NA GM INGA 1961-11-05 15:00:00 TS 22.1949 -95.9952 main 149 149 P_____________ AL111961 22.1949 -95.9952 TS 57 997 0 3 344
1961308N20266 1961 116 NA GM INGA 1961-11-05 18:00:00 TS 22.3000 -96.0000 55 hurdat_atl main 155 155 I_____________ hurdat_atl AL111961 22.3000 -96.0000 TS 55 997 0 1 2
1961308N20266 1961 116 NA GM INGA 1961-11-05 21:00:00 TS 22.3375 -95.9650 main 155 155 P_____________ AL111961 22.3375 -95.9650 TS 52 997 0 1 90
1961308N20266 1961 116 NA GM INGA 1961-11-06 00:00:00 TS 22.3000 -95.9000 50 998 hurdat_atl main 164 159 O_____________ hurdat_atl AL111961 22.3000 -95.9000 TS 50 998 0 2 137
1961308N20266 1961 116 NA GM INGA 1961-11-06 03:00:00 TS 22.2300 -95.8500 main 159 159 P_____________ AL111961 22.2300 -95.8500 TS 52 0 2 155
1961308N20266 1961 116 NA GM INGA 1961-11-06 06:00:00 TS 22.1000 -95.8000 55 hurdat_atl main 164 161 O_____________ hurdat_atl AL111961 22.1000 -95.8000 TS 55 0 2 0
1961308N20266 1961 116 NA GM INGA 1961-11-06 09:00:00 TS 22.0361 -95.8428 main 161 156 P_____________ AL111961 22.0361 -95.8428 TS 55 0 4 168
1961308N20266 1961 116 NA GM INGA 1961-11-06 12:00:00 TS 21.7000 -95.7000 55 hurdat_atl main 165 165 O_____________ hurdat_atl AL111961 21.7000 -95.7000 TS 55 0 13 152
1961308N20266 1961 116 NA GM INGA 1961-11-06 15:00:00 TS 20.9000 -95.2000 60 998 hurdat_atl main 167 162 O_____________ hurdat_atl AL111961 20.9000 -95.2000 T TS 60 998 0 18 148
1961308N20266 1961 116 NA GM INGA 1961-11-06 18:00:00 TS 20.2000 -94.7000 60 1000 hurdat_atl main 175 153 O_____________ hurdat_atl AL111961 20.2000 -94.7000 TS 60 1000 0 14 141
1961308N20266 1961 116 NA GM INGA 1961-11-06 21:00:00 TS 19.8307 -94.2789 main 153 153 P_____________ AL111961 19.8307 -94.2789 TS 60 1002 0 8 127
1961308N20266 1961 116 NA GM INGA 1961-11-07 00:00:00 TS 19.7000 -94.0000 60 1004 hurdat_atl main 156 145 O_____________ hurdat_atl AL111961 19.7000 -94.0000 TS 60 1004 0 4 121
1961308N20266 1961 116 NA GM INGA 1961-11-07 03:00:00 TS 19.6199 -93.9052 main 145 145 P_____________ AL111961 19.6199 -93.9052 TS 60 1004 0 1 137
1961308N20266 1961 116 NA GM INGA 1961-11-07 06:00:00 TS 19.6000 -93.9000 60 hurdat_atl main 145 145 I_____________ hurdat_atl AL111961 19.6000 -93.9000 TS 60 1004 0 1 142
1961308N20266 1961 116 NA GM INGA 1961-11-07 09:00:00 TS 19.5575 -93.8500 main 145 134 P_____________ AL111961 19.5575 -93.8500 TS 60 1004 0 1 137
1961308N20266 1961 116 NA GM INGA 1961-11-07 12:00:00 TS 19.5000 -93.8000 60 1004 hurdat_atl main 134 123 O_____________ hurdat_atl AL111961 19.5000 -93.8000 TS 60 1004 0 2 159
1961308N20266 1961 116 NA GM INGA 1961-11-07 15:00:00 TS 19.3925 -93.7725 main 123 111 P_____________ AL111961 19.3925 -93.7725 TS 60 1005 0 2 153
1961308N20266 1961 116 NA GM INGA 1961-11-07 18:00:00 TS 19.3000 -93.7000 60 1006 hurdat_atl main 111 111 O_____________ hurdat_atl AL111961 19.3000 -93.7000 TS 60 1006 0 2 116
1961308N20266 1961 116 NA GM INGA 1961-11-07 21:00:00 TS 19.2850 -93.5375 main 111 100 P_____________ AL111961 19.2850 -93.5375 TS 57 0 4 90
1961308N20266 1961 116 NA GM INGA 1961-11-08 00:00:00 TS 19.3000 -93.3000 55 hurdat_atl main 100 84 O_____________ hurdat_atl AL111961 19.3000 -93.3000 TS 55 0 5 89
1961308N20266 1961 116 NA GM INGA 1961-11-08 03:00:00 TS 19.2924 -93.0300 main 84 78 P_____________ AL111961 19.2924 -93.0300 TS 55 0 6 90
1961308N20266 1961 116 NA GM INGA 1961-11-08 06:00:00 TS 19.3000 -92.7000 55 hurdat_atl main 78 78 O_____________ hurdat_atl AL111961 19.3000 -92.7000 TS 55 0 7 86
1961308N20266 1961 116 NA GM INGA 1961-11-08 09:00:00 TS 19.3402 -92.3151 main 78 69 P_____________ AL111961 19.3402 -92.3151 TS 55 0 8 82
1961308N20266 1961 116 NA GM INGA 1961-11-08 12:00:00 TS 19.4000 -91.9000 55 hurdat_atl main 69 O_____________ hurdat_atl AL111961 19.4000 -91.9000 TS 55 0 8 81

About IBTrACS Database

This database is a web-friendly format of International Best Track Archive for Climate Stewardship (IBTrACS), a global best track data archive curated by NOAA dating back to 1842.

Updated: 2021-12-03